createdAt,value
2023-03-29T00:02:03.257Z,5.55
2023-03-29T00:04:30.443Z,6.78
2023-03-29T00:06:57.515Z,4.68
2023-03-29T00:09:26.838Z,4.90
2023-03-29T00:11:53.886Z,4.47
2023-03-29T00:14:20.941Z,5.22
2023-03-29T00:16:48.289Z,5.20
2023-03-29T00:19:15.279Z,4.50
2023-03-29T00:22:02.506Z,4.57
2023-03-29T00:24:42.894Z,5.90
2023-03-29T00:27:30.414Z,5.25
2023-03-29T00:30:12.067Z,4.35
2023-03-29T00:32:39.179Z,5.25
2023-03-29T00:35:06.690Z,5.65
2023-03-29T00:37:34.050Z,5.07
2023-03-29T00:40:01.213Z,5.00
2023-03-29T00:42:28.521Z,6.05
2023-03-29T00:45:30.637Z,5.63
2023-03-29T00:48:04.716Z,5.95
2023-03-29T00:50:41.303Z,5.90
2023-03-29T00:53:36.448Z,5.78
2023-03-29T00:56:24.388Z,4.68
2023-03-29T00:59:20.612Z,5.22
2023-03-29T01:01:59.946Z,6.97
2023-03-29T01:04:36.382Z,5.53
2023-03-29T01:07:06.179Z,4.22
2023-03-29T01:09:37.906Z,5.95
2023-03-29T01:12:17.209Z,4.63
2023-03-29T01:14:51.544Z,5.35
2023-03-29T01:17:21.963Z,5.10
2023-03-29T01:20:16.455Z,5.18
2023-03-29T01:23:27.463Z,4.45
2023-03-29T01:26:28.461Z,5.35
2023-03-29T01:29:18.495Z,5.32
2023-03-29T01:32:10.087Z,5.32
2023-03-29T01:34:48.520Z,4.53
2023-03-29T01:37:42.739Z,4.40
2023-03-29T01:40:43.434Z,5.20
2023-03-29T01:43:35.378Z,4.80
2023-03-29T01:46:14.430Z,4.50
2023-03-29T01:49:16.726Z,4.85
2023-03-29T01:51:55.220Z,4.82
2023-03-29T01:54:50.420Z,5.60
2023-03-29T01:57:33.387Z,4.88
2023-03-29T02:00:07.328Z,3.67
2023-03-29T02:02:44.903Z,5.10
2023-03-29T02:05:14.954Z,4.15
2023-03-29T02:07:45.189Z,5.13
2023-03-29T02:10:26.477Z,3.95
2023-03-29T02:13:27.475Z,4.38
2023-03-29T02:16:29.481Z,3.95
2023-03-29T02:19:10.826Z,4.03
2023-03-29T02:21:51.850Z,4.40
2023-03-29T02:24:21.961Z,3.35
2023-03-29T02:27:09.539Z,3.42
2023-03-29T02:30:05.825Z,3.55
2023-03-29T02:33:11.614Z,3.35
2023-03-29T02:35:54.794Z,4.47
2023-03-29T02:38:25.768Z,3.80
2023-03-29T02:40:53.080Z,5.35
2023-03-29T02:43:21.883Z,4.25
2023-03-29T02:45:53.200Z,4.18
2023-03-29T02:48:23.207Z,4.32
2023-03-29T02:50:55.518Z,6.07
2023-03-29T02:53:51.495Z,6.45
2023-03-29T02:56:43.393Z,6.20
2023-03-29T02:59:12.265Z,6.45
2023-03-29T03:02:01.530Z,6.80
2023-03-29T03:04:41.991Z,7.45
2023-03-29T03:07:09.547Z,5.80
2023-03-29T03:09:37.082Z,6.40
2023-03-29T03:12:04.125Z,6.65
2023-03-29T03:14:31.061Z,5.03
2023-03-29T03:17:19.552Z,7.22
2023-03-29T03:20:00.187Z,6.00
2023-03-29T03:22:28.246Z,5.70
2023-03-29T03:24:56.105Z,6.10
2023-03-29T03:27:43.527Z,4.65
2023-03-29T03:30:27.624Z,4.90
2023-03-29T03:33:13.168Z,5.35
2023-03-29T03:36:06.414Z,5.75
2023-03-29T03:38:37.491Z,4.18
2023-03-29T03:41:07.244Z,4.70
2023-03-29T03:43:35.414Z,5.93
2023-03-29T03:46:02.598Z,4.85
2023-03-29T03:48:30.567Z,4.45
2023-03-29T03:51:16.324Z,4.28
2023-03-29T03:54:03.535Z,4.75
2023-03-29T03:57:04.638Z,5.03
2023-03-29T03:59:53.184Z,4.57
2023-03-29T04:03:03.800Z,6.25
2023-03-29T04:05:45.931Z,4.03
2023-03-29T04:08:15.115Z,5.35
2023-03-29T04:11:01.298Z,4.80
2023-03-29T04:13:35.938Z,4.75
2023-03-29T04:16:24.555Z,4.07
2023-03-29T04:18:52.350Z,4.80
2023-03-29T04:21:21.268Z,3.85
2023-03-29T04:23:48.755Z,5.22
2023-03-29T04:26:16.131Z,5.45
2023-03-29T04:29:09.548Z,3.75
2023-03-29T04:31:56.575Z,3.80
2023-03-29T04:34:41.092Z,3.55
2023-03-29T04:37:10.615Z,4.47
2023-03-29T04:39:39.201Z,4.55
2023-03-29T04:42:08.958Z,5.85
2023-03-29T04:44:36.973Z,4.85
2023-03-29T04:47:07.748Z,4.25
2023-03-29T04:49:57.348Z,4.70
2023-03-29T04:52:35.582Z,5.38
2023-03-29T04:55:18.637Z,3.63
2023-03-29T04:58:05.838Z,3.47
2023-03-29T05:01:04.774Z,3.53
2023-03-29T05:04:12.622Z,3.75
2023-03-29T05:07:08.196Z,4.07
2023-03-29T05:09:35.747Z,3.35
2023-03-29T05:12:08.542Z,4.50
2023-03-29T05:14:47.547Z,3.80
2023-03-29T05:17:14.638Z,4.18
2023-03-29T05:19:41.570Z,6.40
2023-03-29T05:22:09.224Z,4.53
2023-03-29T05:24:37.599Z,6.47
2023-03-29T05:27:34.548Z,6.32
2023-03-29T05:30:36.583Z,8.45
2023-03-29T05:33:47.593Z,6.47
2023-03-29T05:36:43.127Z,6.55
2023-03-29T05:39:11.138Z,6.38
2023-03-29T05:41:41.903Z,5.18
2023-03-29T05:44:26.460Z,5.35
2023-03-29T05:46:59.912Z,5.32
2023-03-29T05:49:27.212Z,5.57
2023-03-29T05:52:09.018Z,4.20
2023-03-29T05:54:57.608Z,4.63
2023-03-29T05:57:58.619Z,3.97
2023-03-29T06:00:42.225Z,4.40
2023-03-29T06:03:30.017Z,4.70
2023-03-29T06:06:02.564Z,4.38
2023-03-29T06:08:31.952Z,4.82
2023-03-29T06:11:22.373Z,5.40
2023-03-29T06:14:13.785Z,4.57
2023-03-29T06:16:47.179Z,4.15
2023-03-29T06:19:15.409Z,6.40
2023-03-29T06:21:42.456Z,5.63
2023-03-29T06:24:32.609Z,5.47
2023-03-29T06:27:40.594Z,4.90
2023-03-29T06:30:43.665Z,5.65
2023-03-29T06:33:45.630Z,6.38
2023-03-29T06:36:53.037Z,5.38
2023-03-29T06:39:21.582Z,6.57
2023-03-29T06:42:19.921Z,6.90
2023-03-29T06:45:11.734Z,6.00
2023-03-29T06:47:39.863Z,5.90
2023-03-29T06:50:08.469Z,5.43
2023-03-29T06:53:03.617Z,5.40
2023-03-29T06:56:06.673Z,6.78
2023-03-29T06:58:48.654Z,6.55
2023-03-29T07:01:28.658Z,4.07
2023-03-29T07:04:08.185Z,4.18
2023-03-29T07:07:01.584Z,4.60
2023-03-29T07:09:31.764Z,6.55
2023-03-29T07:12:37.281Z,6.63
2023-03-29T07:15:04.754Z,7.18
2023-03-29T07:17:58.107Z,5.15
2023-03-29T07:20:27.366Z,4.82
2023-03-29T07:23:06.016Z,5.68
2023-03-29T07:25:34.098Z,5.05
2023-03-29T07:28:21.672Z,5.20
2023-03-29T07:31:25.617Z,4.30
2023-03-29T07:34:27.265Z,5.13
2023-03-29T07:36:55.378Z,5.22
2023-03-29T07:39:23.313Z,5.68
2023-03-29T07:42:11.197Z,4.95
2023-03-29T07:44:38.448Z,5.95
2023-03-29T07:47:05.650Z,5.00
2023-03-29T07:49:52.629Z,5.32
2023-03-29T07:52:34.203Z,4.40
2023-03-29T07:55:25.657Z,4.05
2023-03-29T07:58:23.265Z,3.15
2023-03-29T08:00:50.858Z,3.22
2023-03-29T08:03:46.724Z,3.88
2023-03-29T08:06:13.995Z,2.45
2023-03-29T08:08:41.030Z,3.53
2023-03-29T08:11:12.134Z,3.92
2023-03-29T08:13:44.973Z,4.82
2023-03-29T08:16:27.367Z,4.65
2023-03-29T08:21:59.973Z,3.72
2023-03-29T08:24:32.631Z,3.33
2023-03-29T08:27:25.886Z,2.55
2023-03-29T08:30:09.530Z,3.00
2023-03-29T08:32:39.407Z,2.10
2023-03-29T08:35:09.755Z,2.45
2023-03-29T08:37:43.584Z,3.10
2023-03-29T08:40:27.539Z,2.40
2023-03-29T08:43:24.006Z,2.88
2023-03-29T08:46:58.825Z,3.87
2023-03-29T08:50:08.685Z,2.90
2023-03-29T08:53:00.621Z,2.53
2023-03-29T08:56:01.676Z,2.65
2023-03-29T08:59:01.344Z,2.45
2023-03-29T09:01:36.300Z,1.88
2023-03-29T09:04:15.830Z,2.28
2023-03-29T09:06:49.710Z,2.28
2023-03-29T09:09:23.906Z,2.00
2023-03-29T09:12:05.152Z,2.20
2023-03-29T09:14:44.149Z,1.65
2023-03-29T09:17:54.485Z,1.98
2023-03-29T09:21:01.665Z,1.55
2023-03-29T09:24:22.792Z,1.98
2023-03-29T09:27:39.687Z,1.88
2023-03-29T09:30:49.722Z,2.53
2023-03-29T09:33:37.247Z,1.48
2023-03-29T09:36:18.683Z,1.83
2023-03-29T09:38:51.137Z,1.77
2023-03-29T09:41:53.456Z,1.77
2023-03-29T09:44:46.688Z,2.25
2023-03-29T09:47:48.145Z,2.00
2023-03-29T09:50:41.350Z,3.05
2023-03-29T09:53:29.740Z,1.73
2023-03-29T09:56:48.814Z,1.80
2023-03-29T09:59:38.773Z,3.03
2023-03-29T10:02:12.842Z,2.78
2023-03-29T10:04:43.760Z,2.50
2023-03-29T10:07:18.992Z,1.85
2023-03-29T10:09:52.021Z,1.20
2023-03-29T10:12:20.970Z,1.58
2023-03-29T10:14:54.306Z,1.92
2023-03-29T10:17:28.195Z,2.17
2023-03-29T10:20:13.109Z,2.95
2023-03-29T10:23:01.732Z,1.70
2023-03-29T10:26:02.824Z,2.42
2023-03-29T10:28:54.767Z,2.13
2023-03-29T10:31:41.672Z,2.70
2023-03-29T10:34:15.198Z,2.03
2023-03-29T10:36:47.805Z,2.08
2023-03-29T10:39:16.568Z,1.85
2023-03-29T10:41:44.875Z,1.60
2023-03-29T10:44:46.812Z,2.42
2023-03-29T10:47:34.464Z,1.80
2023-03-29T10:50:05.960Z,1.80
2023-03-29T10:52:33.583Z,2.63
2023-03-29T10:55:26.714Z,2.45
2023-03-29T10:58:16.468Z,1.77
2023-03-29T11:00:57.024Z,1.70
2023-03-29T11:04:02.369Z,2.38
2023-03-29T11:07:03.432Z,2.33
2023-03-29T11:09:45.565Z,2.08
2023-03-29T11:12:27.943Z,3.10
2023-03-29T11:15:11.354Z,2.28
2023-03-29T11:17:54.431Z,2.22
2023-03-29T11:20:34.131Z,2.50
2023-03-29T11:23:10.096Z,2.85
2023-03-29T11:25:55.487Z,2.85
2023-03-29T11:28:51.847Z,2.45
2023-03-29T11:32:21.928Z,2.58
2023-03-29T11:35:34.864Z,2.60
2023-03-29T11:38:25.218Z,2.40
2023-03-29T11:41:38.797Z,3.10
2023-03-29T11:44:44.769Z,2.67
2023-03-29T11:47:47.795Z,2.45
2023-03-29T11:50:37.056Z,3.17
2023-03-29T11:53:26.806Z,2.33
2023-03-29T11:56:22.058Z,3.40
2023-03-29T11:58:55.818Z,2.90
2023-03-29T12:01:33.756Z,3.40
2023-03-29T12:04:08.078Z,2.22
2023-03-29T12:06:43.120Z,1.95
2023-03-29T12:09:22.916Z,3.08
2023-03-29T12:12:15.625Z,3.03
2023-03-29T12:15:07.269Z,2.85
2023-03-29T12:18:02.028Z,2.38
2023-03-29T12:20:34.144Z,1.90
2023-03-29T12:23:02.878Z,2.30
2023-03-29T12:25:38.069Z,2.75
2023-03-29T12:28:15.140Z,2.38
2023-03-29T12:31:10.253Z,2.47
2023-03-29T12:33:52.645Z,3.08
2023-03-29T12:36:41.781Z,2.35
2023-03-29T12:39:58.850Z,2.85
2023-03-29T12:43:35.830Z,2.90
2023-03-29T12:46:23.170Z,2.45
2023-03-29T12:48:59.721Z,2.78
2023-03-29T12:51:32.717Z,2.53
2023-03-29T12:54:41.851Z,3.03
2023-03-29T12:57:54.802Z,2.60
2023-03-29T13:00:50.985Z,2.40
2023-03-29T13:03:54.858Z,3.00
2023-03-29T13:07:02.773Z,3.45
2023-03-29T13:09:49.773Z,2.22
2023-03-29T13:12:16.709Z,2.95
2023-03-29T13:14:49.863Z,2.10
2023-03-29T13:18:15.955Z,2.23
2023-03-29T13:21:24.703Z,3.30
2023-03-29T13:23:59.938Z,2.53
2023-03-29T13:27:16.358Z,3.40
2023-03-29T13:29:47.820Z,2.70
2023-03-29T13:32:27.277Z,2.63
2023-03-29T13:35:33.877Z,2.13
2023-03-29T13:38:39.049Z,3.10
2023-03-29T13:41:33.547Z,3.80
2023-03-29T13:44:00.675Z,3.25
2023-03-29T13:46:58.060Z,2.90
2023-03-29T13:50:06.882Z,2.72
2023-03-29T13:53:14.864Z,3.35
2023-03-29T13:56:16.837Z,3.47
2023-03-29T13:59:31.972Z,3.83
2023-03-29T14:02:41.047Z,3.90
2023-03-29T14:05:38.627Z,2.63
2023-03-29T14:08:14.812Z,2.70
2023-03-29T14:10:44.350Z,3.15
2023-03-29T14:13:17.675Z,2.60
2023-03-29T14:15:52.343Z,3.90
2023-03-29T14:18:45.954Z,2.67
2023-03-29T14:21:26.749Z,2.95
2023-03-29T14:24:03.385Z,2.80
2023-03-29T14:26:33.262Z,2.10
2023-03-29T14:29:01.890Z,2.05
2023-03-29T14:31:51.964Z,2.88
2023-03-29T14:34:32.439Z,2.35
2023-03-29T14:36:59.934Z,2.08
2023-03-29T14:39:27.058Z,2.50
2023-03-29T14:41:59.321Z,3.15
2023-03-29T14:44:31.052Z,3.03
2023-03-29T14:46:58.617Z,2.97
2023-03-29T14:49:26.339Z,3.03
2023-03-29T14:51:55.288Z,1.90
2023-03-29T14:54:46.866Z,2.65
2023-03-29T14:57:49.898Z,2.45
2023-03-29T15:00:55.005Z,2.50
2023-03-29T15:04:04.897Z,2.78
2023-03-29T15:06:47.071Z,3.28
2023-03-29T15:09:30.044Z,2.88
2023-03-29T15:12:16.903Z,2.83
2023-03-29T15:14:58.743Z,3.42
2023-03-29T15:17:36.299Z,2.58
2023-03-29T15:22:52.497Z,3.08
2023-03-29T15:25:21.839Z,3.33
2023-03-29T15:28:09.900Z,2.50
2023-03-29T15:31:06.754Z,2.10
2023-03-29T15:33:40.091Z,3.13
2023-03-29T15:36:09.887Z,3.22
2023-03-29T15:38:56.946Z,2.55
2023-03-29T15:41:37.487Z,2.17
2023-03-29T15:44:04.547Z,2.50
2023-03-29T15:46:32.384Z,1.80
2023-03-29T15:48:59.418Z,2.90
2023-03-29T15:51:26.417Z,2.60
2023-03-29T15:54:13.900Z,2.03
2023-03-29T15:57:01.659Z,2.70
2023-03-29T15:59:51.358Z,2.53
2023-03-29T16:02:53.992Z,2.55
2023-03-29T16:05:55.943Z,2.53
2023-03-29T16:08:42.957Z,2.88
2023-03-29T16:11:15.778Z,2.72
2023-03-29T16:13:42.846Z,2.35
2023-03-29T16:16:11.152Z,2.42
2023-03-29T16:18:38.839Z,2.40
2023-03-29T16:21:06.513Z,2.58
2023-03-29T16:23:54.966Z,3.05
2023-03-29T16:26:56.417Z,2.47
2023-03-29T16:29:53.153Z,2.13
2023-03-29T16:32:20.112Z,2.50
2023-03-29T16:34:47.391Z,2.42
2023-03-29T16:37:14.535Z,2.33
2023-03-29T16:39:41.535Z,2.10
2023-03-29T16:42:11.355Z,2.47
2023-03-29T16:44:38.703Z,2.35
2023-03-29T16:47:06.080Z,3.67
2023-03-29T16:49:55.027Z,8.45
2023-03-29T16:52:56.128Z,3.97
2023-03-29T16:55:59.989Z,3.25
2023-03-29T16:58:41.383Z,2.45
2023-03-29T17:01:16.771Z,3.35
2023-03-29T17:03:44.796Z,2.28
2023-03-29T17:06:11.978Z,3.40
2023-03-29T17:08:40.324Z,2.85
2023-03-29T17:11:07.522Z,4.43
2023-03-29T17:13:35.058Z,3.00
2023-03-29T17:16:02.346Z,4.20
2023-03-29T17:18:29.708Z,5.40
2023-03-29T17:20:57.930Z,2.92
2023-03-29T17:23:44.993Z,4.68
2023-03-29T17:26:46.092Z,11.35
2023-03-29T17:29:47.001Z,11.18
2023-03-29T17:32:27.836Z,10.43
2023-03-29T17:34:54.876Z,2.42
2023-03-29T17:37:24.378Z,12.02
2023-03-29T17:39:51.391Z,2.47
2023-03-29T17:42:18.553Z,2.63
2023-03-29T17:44:45.657Z,2.42
2023-03-29T17:47:16.380Z,2.55
2023-03-29T17:49:43.668Z,1.65
2023-03-29T17:52:10.964Z,1.92
2023-03-29T17:54:59.395Z,3.53
2023-03-29T17:58:00.676Z,2.00
2023-03-29T18:00:43.956Z,3.43
2023-03-29T18:03:11.188Z,2.08
2023-03-29T18:05:41.266Z,3.50
2023-03-29T18:08:10.243Z,3.72
2023-03-29T18:10:37.246Z,2.28
2023-03-29T18:13:04.982Z,3.25
2023-03-29T18:15:33.669Z,3.47
2023-03-29T18:18:21.153Z,2.45
2023-03-29T18:21:23.295Z,2.63
2023-03-29T18:24:05.174Z,2.35
2023-03-29T18:26:34.468Z,2.80
2023-03-29T18:29:02.221Z,2.47
2023-03-29T18:31:31.302Z,3.03
2023-03-29T18:33:58.762Z,3.92
2023-03-29T18:36:29.270Z,4.60
2023-03-29T18:39:18.538Z,4.15
2023-03-29T18:42:21.056Z,3.20
2023-03-29T18:45:04.626Z,3.17
2023-03-29T18:47:31.739Z,3.58
2023-03-29T18:50:21.061Z,4.15
2023-03-29T18:53:22.114Z,3.10
2023-03-29T18:56:23.194Z,3.50
2023-03-29T18:59:06.973Z,3.50
2023-03-29T19:01:34.381Z,2.65
2023-03-29T19:04:01.579Z,2.92
2023-03-29T19:06:28.790Z,3.15
2023-03-29T19:08:58.633Z,3.25
2023-03-29T19:11:28.820Z,3.40
2023-03-29T19:13:56.578Z,3.72
2023-03-29T19:16:23.859Z,5.35
2023-03-29T19:18:50.958Z,7.28
2023-03-29T19:21:18.126Z,7.18
2023-03-29T19:23:45.312Z,5.45
2023-03-29T19:26:32.083Z,5.65
2023-03-29T19:29:13.104Z,4.65
2023-03-29T19:32:01.122Z,6.20
2023-03-29T19:34:41.584Z,5.05
2023-03-29T19:37:09.843Z,5.85
2023-03-29T19:39:37.124Z,4.55
2023-03-29T19:42:08.049Z,4.32
2023-03-29T19:44:38.262Z,4.70
2023-03-29T19:47:20.346Z,3.88
2023-03-29T19:50:22.200Z,4.28
2023-03-29T19:53:23.219Z,4.22
2023-03-29T19:56:24.152Z,4.43
2023-03-29T19:59:08.359Z,4.20
2023-03-29T20:01:49.507Z,4.75
2023-03-29T20:04:50.143Z,4.60
2023-03-29T20:07:30.768Z,5.45
2023-03-29T20:09:57.818Z,4.47
2023-03-29T20:12:25.119Z,4.10
2023-03-29T20:14:52.222Z,4.57
2023-03-29T20:17:39.156Z,4.55
2023-03-29T20:20:21.510Z,4.53
2023-03-29T20:22:48.387Z,3.45
2023-03-29T20:25:15.657Z,4.15
2023-03-29T20:27:42.871Z,4.68
2023-03-29T20:30:11.567Z,4.25
2023-03-29T20:32:38.806Z,3.30
2023-03-29T20:35:06.464Z,4.43
2023-03-29T20:37:33.431Z,4.80
2023-03-29T20:40:01.134Z,4.30
2023-03-29T20:42:29.774Z,3.95
2023-03-29T20:45:11.196Z,3.50
2023-03-29T20:47:57.918Z,4.35
2023-03-29T20:50:29.008Z,3.97
2023-03-29T20:52:57.137Z,3.53
2023-03-29T20:55:47.158Z,4.03
2023-03-29T20:58:48.116Z,4.22
2023-03-29T21:01:30.224Z,4.05
2023-03-29T21:04:17.157Z,2.75
2023-03-29T21:07:00.390Z,5.53
2023-03-29T21:09:28.656Z,4.35
2023-03-29T21:11:55.906Z,3.30
2023-03-29T21:14:22.897Z,3.78
2023-03-29T21:16:50.261Z,4.03
2023-03-29T21:19:17.306Z,5.32
2023-03-29T21:21:47.015Z,5.22
2023-03-29T21:24:34.126Z,4.97
2023-03-29T21:27:35.164Z,4.97
2023-03-29T21:30:16.129Z,5.10
2023-03-29T21:33:03.168Z,4.10
2023-03-29T21:35:43.662Z,5.15
2023-03-29T21:38:31.180Z,5.85
2023-03-29T21:41:32.173Z,5.70
2023-03-29T21:44:12.957Z,5.93
2023-03-29T21:46:40.002Z,5.18
2023-03-29T21:49:06.960Z,5.00
2023-03-29T21:51:33.930Z,4.53
2023-03-29T21:54:21.199Z,6.40
2023-03-29T21:57:01.866Z,4.57
2023-03-29T21:59:29.077Z,5.75
2023-03-29T22:02:16.256Z,5.40
2023-03-29T22:05:18.126Z,5.60
2023-03-29T22:08:20.165Z,5.57
2023-03-29T22:11:08.158Z,5.85
2023-03-29T22:13:35.395Z,6.63
2023-03-29T22:16:04.048Z,5.10
2023-03-29T22:18:44.614Z,6.63
2023-03-29T22:21:22.673Z,6.05
2023-03-29T22:23:52.209Z,6.90
2023-03-29T22:26:22.099Z,6.70
2023-03-29T22:28:50.666Z,5.55
2023-03-29T22:31:19.742Z,4.75
2023-03-29T22:33:47.646Z,5.95
2023-03-29T22:36:25.798Z,6.60
2023-03-29T22:39:13.232Z,7.47
2023-03-29T22:41:53.719Z,5.75
2023-03-29T22:44:21.030Z,6.05
2023-03-29T22:46:47.955Z,6.30
2023-03-29T22:49:14.991Z,6.63
2023-03-29T22:51:41.949Z,6.15
2023-03-29T22:54:30.193Z,6.25
2023-03-29T22:57:11.025Z,7.00
2023-03-29T22:59:38.044Z,6.07
2023-03-29T23:02:25.230Z,6.43
2023-03-29T23:05:26.218Z,6.00
2023-03-29T23:08:27.178Z,5.53
2023-03-29T23:11:04.613Z,7.70
2023-03-29T23:13:33.631Z,6.38
2023-03-29T23:16:02.488Z,8.02
2023-03-29T23:18:31.013Z,7.07
2023-03-29T23:20:59.050Z,7.00
2023-03-29T23:23:46.189Z,7.10
2023-03-29T23:26:27.846Z,7.03
2023-03-29T23:28:54.847Z,6.30
2023-03-29T23:31:24.032Z,6.57
2023-03-29T23:33:53.105Z,7.63
2023-03-29T23:36:40.462Z,9.75
2023-03-29T23:39:20.856Z,12.02
2023-03-29T23:41:47.933Z,9.63
2023-03-29T23:44:14.863Z,9.70
2023-03-29T23:46:41.950Z,9.43
2023-03-29T23:49:10.040Z,8.48
2023-03-29T23:51:36.920Z,10.88
2023-03-29T23:54:25.222Z,8.43
2023-03-29T23:57:06.270Z,7.63
2023-03-29T23:59:37.875Z,7.95
